Time;durP1;ratioP1;P1;durP2;ratioP2;P2;SDS_P1;SDS_P2;PMS_P1;PMS_P2;Temp;Humidity;BMP_temperature;BMP_pressure;BME280_temperature;BME280_humidity;BME280_pressure;Samples;Min_cycle;Max_cycle;Signal;HPM_P1;HPM_P2
2022/05/03 00:00:16;;;;;;;;;;;;;;;21.19;41.18;95422.41;10364065;28;1917;-44
2022/05/03 00:05:19;;;;;;;;;;;;;;;21.22;40.90;95408.66;10380516;28;2030;-46
2022/05/03 00:10:21;;;;;;;;;;;;;;;21.23;40.97;95406.78;10397947;28;1983;-45
2022/05/03 00:15:22;;;;;;;;;;;;;;;21.24;40.81;95409.16;10388313;28;1869;-43
2022/05/03 00:20:23;;;;;;;;;;;;;;;21.26;40.55;95408.88;10385995;28;1775;-43
2022/05/03 00:25:23;;;;;;;;;;;;;;;21.25;40.72;95407.28;10401477;28;1910;-43
2022/05/03 00:30:23;;;;;;;;;;;;;;;21.29;40.79;95403.81;10393443;28;1818;-43
2022/05/03 00:35:23;;;;;;;;;;;;;;;21.32;40.49;95411.16;10370055;28;2423;-49
2022/05/03 00:40:24;;;;;;;;;;;;;;;21.33;40.39;95401.41;10371558;28;1880;-45
2022/05/03 00:45:45;;;;;;;;;;;;;;;21.35;40.33;95396.63;10372128;28;1947;-43
2022/05/03 00:50:51;;;;;;;;;;;;;;;21.37;40.11;95397.13;10357396;28;1975;-42
2022/05/03 00:56:01;;;;;;;;;;;;;;;21.37;40.40;95394.50;10377461;28;2071;-43
2022/05/03 01:01:05;;;;;;;;;;;;;;;21.39;40.32;95381.81;10394919;28;1888;-43
2022/05/03 01:06:09;;;;;;;;;;;;;;;21.42;40.12;95387.28;10369539;28;1995;-47
2022/05/03 01:11:28;;;;;;;;;;;;;;;21.42;39.96;95379.38;10391433;28;1838;-44
2022/05/03 01:16:34;;;;;;;;;;;;;;;21.43;39.81;95383.56;10375655;28;1994;-44
2022/05/03 01:21:37;;;;;;;;;;;;;;;21.44;40.02;95381.72;10373516;28;1830;-43
2022/05/03 01:27:03;;;;;;;;;;;;;;;21.43;40.15;95385.44;10381529;28;2130;-43
2022/05/03 01:32:05;;;;;;;;;;;;;;;21.42;40.15;95382.00;10360969;28;1971;-45
2022/05/03 01:37:12;;;;;;;;;;;;;;;21.42;40.22;95370.66;10381532;28;1919;-46
2022/05/03 01:42:15;;;;;;;;;;;;;;;21.39;39.94;95371.25;10386782;28;1920;-44
2022/05/03 01:47:17;;;;;;;;;;;;;;;21.39;40.32;95372.00;10383760;28;1997;-43
2022/05/03 01:52:17;;;;;;;;;;;;;;;21.38;40.01;95374.94;10370074;28;1821;-47
2022/05/03 01:57:36;;;;;;;;;;;;;;;21.39;39.83;95373.88;10373262;28;1892;-45
2022/05/03 02:02:56;;;;;;;;;;;;;;;21.38;40.02;95370.47;10367173;28;1968;-47
2022/05/03 02:07:57;;;;;;;;;;;;;;;21.34;40.18;95382.66;10375580;28;1894;-43
2022/05/03 02:12:58;;;;;;;;;;;;;;;21.33;40.53;95382.94;10374508;28;1920;-43
2022/05/03 02:18:05;;;;;;;;;;;;;;;21.33;40.43;95375.03;10384697;28;2006;-44
2022/05/03 02:23:20;;;;;;;;;;;;;;;21.32;40.35;95373.47;10379316;28;1992;-46
2022/05/03 02:28:36;;;;;;;;;;;;;;;21.30;40.60;95378.22;10401667;28;2045;-48
2022/05/03 02:33:43;;;;;;;;;;;;;;;21.30;40.62;95379.03;10364806;28;1870;-46
2022/05/03 02:38:48;;;;;;;;;;;;;;;21.28;40.44;95386.44;10397007;28;2056;-43
2022/05/03 02:43:49;;;;;;;;;;;;;;;21.30;40.83;95383.50;10388122;28;1858;-44
2022/05/03 02:48:56;;;;;;;;;;;;;;;21.30;40.64;95388.78;10388717;28;1909;-44
2022/05/03 02:53:57;;;;;;;;;;;;;;;21.29;40.53;95387.22;10386141;28;1916;-46
2022/05/03 02:59:01;;;;;;;;;;;;;;;21.30;40.14;95391.41;10401170;28;1826;-43
2022/05/03 03:04:09;;;;;;;;;;;;;;;21.29;40.25;95393.25;10402130;28;1818;-45
2022/05/03 03:09:12;;;;;;;;;;;;;;;21.30;40.05;95394.06;10375608;28;1910;-44
2022/05/03 03:14:19;;;;;;;;;;;;;;;21.31;40.25;95385.84;10387177;28;2065;-46
2022/05/03 03:19:33;;;;;;;;;;;;;;;21.33;39.94;95388.22;10393270;28;1822;-45
2022/05/03 03:24:34;;;;;;;;;;;;;;;21.33;40.14;95388.22;10388245;28;1858;-43
2022/05/03 03:29:34;;;;;;;;;;;;;;;21.34;40.21;95382.66;10401639;28;1919;-47
2022/05/03 03:34:37;;;;;;;;;;;;;;;21.36;40.39;95377.09;10362129;28;1834;-45
2022/05/03 03:39:37;;;;;;;;;;;;;;;21.38;40.45;95383.66;10385545;28;1874;-44
2022/05/03 03:44:38;;;;;;;;;;;;;;;21.39;40.15;95392.34;10364085;28;1983;-45
2022/05/03 03:49:38;;;;;;;;;;;;;;;21.38;39.87;95388.13;10394282;28;1958;-43
2022/05/03 03:54:42;;;;;;;;;;;;;;;21.40;39.89;95389.41;10382916;28;2065;-46
2022/05/03 03:59:42;;;;;;;;;;;;;;;21.41;39.87;95395.47;10395719;28;1684;-45
2022/05/03 04:04:44;;;;;;;;;;;;;;;21.41;40.17;95392.84;10364069;28;1803;-45
2022/05/03 04:09:45;;;;;;;;;;;;;;;21.39;40.14;95393.09;10385804;28;2001;-44
2022/05/03 04:14:46;;;;;;;;;;;;;;;21.41;40.06;95392.84;10410388;28;1846;-45
2022/05/03 04:19:47;;;;;;;;;;;;;;;21.39;40.00;95398.38;10385613;28;1775;-44
2022/05/03 04:24:47;;;;;;;;;;;;;;;21.37;39.92;95397.13;10381242;28;1994;-46
2022/05/03 04:29:48;;;;;;;;;;;;;;;21.38;40.11;95398.69;10382821;28;1979;-42
2022/05/03 04:34:48;;;;;;;;;;;;;;;21.39;40.39;95398.38;10384506;28;1846;-43
2022/05/03 04:39:48;;;;;;;;;;;;;;;21.38;40.34;95396.03;10384986;28;1819;-43
2022/05/03 04:44:49;;;;;;;;;;;;;;;21.35;39.80;95410.56;10383107;28;1847;-43
2022/05/03 04:49:49;;;;;;;;;;;;;;;21.35;40.00;95412.44;10390507;28;1955;-46
2022/05/03 04:54:49;;;;;;;;;;;;;;;21.34;39.90;95405.59;10375081;28;1907;-46
2022/05/03 04:59:49;;;;;;;;;;;;;;;21.33;40.03;95414.59;10395080;28;1831;-42
2022/05/03 05:04:52;;;;;;;;;;;;;;;21.33;39.94;95417.22;10397222;28;1684;-43
2022/05/03 05:15:12;;;;;;;;;;;;;;;21.32;39.96;95415.63;10381229;28;2371;-43
2022/05/03 05:20:12;;;;;;;;;;;;;;;21.34;39.89;95418.78;10397747;28;1752;-46
2022/05/03 05:25:13;;;;;;;;;;;;;;;21.32;40.20;95423.56;10376751;28;1981;-43
2022/05/03 05:30:14;;;;;;;;;;;;;;;21.32;39.83;95429.63;10381113;28;1850;-45
2022/05/03 05:35:14;;;;;;;;;;;;;;;21.28;40.29;95427.81;10381421;28;1779;-43
2022/05/03 05:40:15;;;;;;;;;;;;;;;21.29;39.86;95429.41;10385965;28;1775;-43
2022/05/03 05:45:16;;;;;;;;;;;;;;;21.27;39.78;95426.28;10382522;28;1918;-47
2022/05/03 05:50:16;;;;;;;;;;;;;;;21.29;39.80;95429.41;10399583;28;1913;-48
2022/05/03 05:55:17;;;;;;;;;;;;;;;21.28;39.71;95433.09;10385690;28;1834;-44
2022/05/03 06:00:18;;;;;;;;;;;;;;;21.30;39.59;95433.59;10393526;28;1783;-46
2022/05/03 06:05:19;;;;;;;;;;;;;;;21.30;39.74;95436.22;10390965;28;1979;-43
2022/05/03 06:10:20;;;;;;;;;;;;;;;21.31;39.67;95443.09;10412458;28;1847;-44
2022/05/03 06:15:20;;;;;;;;;;;;;;;21.30;39.33;95433.59;10404497;28;1870;-45
2022/05/03 06:20:21;;;;;;;;;;;;;;;21.30;39.41;95431.75;10399172;28;1871;-43
2022/05/03 06:25:23;;;;;;;;;;;;;;;21.29;39.35;95439.94;10409811;28;1989;-43
2022/05/03 06:30:23;;;;;;;;;;;;;;;21.33;39.51;95446.22;10392745;28;1952;-45
2022/05/03 06:35:23;;;;;;;;;;;;;;;21.33;39.56;95444.34;10406000;28;1973;-43
2022/05/03 06:40:25;;;;;;;;;;;;;;;21.31;39.57;95446.50;10391204;28;1847;-46
2022/05/03 06:45:25;;;;;;;;;;;;;;;21.32;39.40;95455.19;10390054;28;1918;-48
2022/05/03 06:50:26;;;;;;;;;;;;;;;21.32;39.49;95457.81;10400175;28;1890;-44
2022/05/03 06:55:26;;;;;;;;;;;;;;;21.33;39.21;95457.53;10396711;28;1893;-43
2022/05/03 07:00:26;;;;;;;;;;;;;;;21.32;39.28;95463.09;10388331;28;1795;-45
2022/05/03 07:05:27;;;;;;;;;;;;;;;21.38;39.34;95459.31;10383864;28;2340;-45
2022/05/03 07:10:27;;;;;;;;;;;;;;;21.36;39.40;95464.09;10393247;28;1822;-44
2022/05/03 07:15:30;;;;;;;;;;;;;;;21.36;39.13;95461.47;10395759;28;2156;-44
2022/05/03 07:25:50;;;;;;;;;;;;;;;21.40;39.23;95465.09;10384829;28;2007;-43
2022/05/03 07:30:50;;;;;;;;;;;;;;;21.39;39.11;95466.19;10381545;28;2168;-43
2022/05/03 07:35:50;;;;;;;;;;;;;;;21.40;39.10;95465.09;10398246;28;1911;-45
2022/05/03 07:40:51;;;;;;;;;;;;;;;21.41;39.16;95466.66;10395145;28;1736;-45
2022/05/03 07:45:52;;;;;;;;;;;;;;;21.38;39.30;95461.94;10397569;28;2207;-44
2022/05/03 07:50:52;;;;;;;;;;;;;;;21.37;39.15;95470.94;10390974;28;1869;-44
2022/05/03 07:55:53;;;;;;;;;;;;;;;21.38;39.09;95469.88;10393710;28;1798;-47
2022/05/03 08:00:54;;;;;;;;;;;;;;;21.37;38.81;95465.69;10397191;28;1843;-47
2022/05/03 08:05:54;;;;;;;;;;;;;;;21.36;39.12;95478.06;10388090;28;2476;-43
2022/05/03 08:10:55;;;;;;;;;;;;;;;21.33;38.99;95475.22;10390089;28;1851;-43
2022/05/03 08:15:55;;;;;;;;;;;;;;;21.33;39.12;95475.97;10396083;28;1914;-46
2022/05/03 08:20:55;;;;;;;;;;;;;;;21.33;39.03;95478.63;10414830;28;1786;-47
2022/05/03 08:25:56;;;;;;;;;;;;;;;21.32;39.30;95478.91;10396076;28;2164;-45
2022/05/03 08:30:57;;;;;;;;;;;;;;;21.34;39.10;95487.31;10392299;28;1907;-44
2022/05/03 08:35:57;;;;;;;;;;;;;;;21.36;39.17;95487.81;10391436;28;1752;-49
2022/05/03 08:46:18;;;;;;;;;;;;;;;21.36;39.13;95490.47;10390330;28;1914;-44
2022/05/03 08:51:19;;;;;;;;;;;;;;;21.38;38.94;95493.59;10392616;28;1867;-43
2022/05/03 08:56:20;;;;;;;;;;;;;;;21.37;38.97;95487.53;10405695;28;1823;-44
2022/05/03 09:01:20;;;;;;;;;;;;;;;21.37;39.05;95484.13;10406973;28;1853;-48
2022/05/03 09:06:33;;;;;;;;;;;;;;;21.39;39.00;95487.28;10386103;28;1975;-47
2022/05/03 09:11:41;;;;;;;;;;;;;;;21.40;38.97;95489.63;10382020;28;1693;-44
2022/05/03 09:16:49;;;;;;;;;;;;;;;21.38;39.01;95483.03;10404311;28;1885;-45
2022/05/03 09:27:18;;;;;;;;;;;;;;;21.36;39.25;95482.56;10382629;28;1910;-47
2022/05/03 09:32:37;;;;;;;;;;;;;;;21.37;39.34;95481.50;10378418;28;2058;-49
2022/05/03 09:37:41;;;;;;;;;;;;;;;21.37;39.27;95476.22;10370564;28;1882;-42
2022/05/03 09:42:50;;;;;;;;;;;;;;;21.41;39.47;95472.72;10373731;28;1820;-50
2022/05/03 09:47:56;;;;;;;;;;;;;;;21.44;39.75;95479.28;10377388;28;1906;-43
2022/05/03 09:52:57;;;;;;;;;;;;;;;21.46;39.67;95463.94;10378634;28;1728;-47
2022/05/03 09:57:59;;;;;;;;;;;;;;;21.44;40.01;95466.88;10392492;28;1867;-47
2022/05/03 10:03:00;;;;;;;;;;;;;;;21.45;40.40;95462.41;10384640;28;1763;-46
2022/05/03 10:08:00;;;;;;;;;;;;;;;21.47;40.13;95460.25;10389932;28;1992;-50
2022/05/03 10:13:01;;;;;;;;;;;;;;;21.50;40.41;95467.59;10395616;28;1853;-49
2022/05/03 10:23:33;;;;;;;;;;;;;;;21.48;40.30;95465.22;10383345;28;1854;-44
2022/05/03 10:28:52;;;;;;;;;;;;;;;21.48;40.37;95443.34;10381859;28;1965;-48
2022/05/03 10:33:52;;;;;;;;;;;;;;;21.49;40.23;95439.66;10390502;28;1816;-48
2022/05/03 10:38:53;;;;;;;;;;;;;;;21.48;40.03;95448.63;10381581;28;1845;-45
2022/05/03 10:43:53;;;;;;;;;;;;;;;21.45;40.36;95439.44;10368632;28;2292;-44
2022/05/03 10:49:10;;;;;;;;;;;;;;;21.46;40.18;95437.56;10400187;28;1910;-46
2022/05/03 10:54:11;;;;;;;;;;;;;;;21.44;40.31;95439.72;10386613;28;2006;-45
2022/05/03 10:59:14;;;;;;;;;;;;;;;21.43;40.28;95430.25;10382548;28;1835;-48
2022/05/03 11:04:14;;;;;;;;;;;;;;;21.41;40.60;95424.47;10374147;28;1882;-44
2022/05/03 11:09:23;;;;;;;;;;;;;;;21.42;40.31;95423.41;10382111;28;1911;-47
2022/05/03 11:14:26;;;;;;;;;;;;;;;21.40;40.14;95405.22;10392971;28;1920;-45
2022/05/03 11:19:27;;;;;;;;;;;;;;;21.37;40.37;95407.66;10386948;28;1843;-44
2022/05/03 11:24:29;;;;;;;;;;;;;;;21.37;40.15;95410.31;10383296;28;1860;-48
2022/05/03 11:29:30;;;;;;;;;;;;;;;21.37;40.26;95410.31;10387369;28;1918;-48
2022/05/03 11:34:31;;;;;;;;;;;;;;;21.35;40.40;95407.19;10405146;28;2030;-46
2022/05/03 11:39:31;;;;;;;;;;;;;;;21.33;40.33;95404.81;10401240;28;1937;-44
2022/05/03 11:44:32;;;;;;;;;;;;;;;21.34;40.11;95401.09;10389322;28;2293;-43
2022/05/03 11:49:32;;;;;;;;;;;;;;;21.32;40.44;95405.88;10398949;28;1918;-45
2022/05/03 11:59:58;;;;;;;;;;;;;;;21.32;40.50;95397.97;10414994;28;1848;-47
2022/05/03 12:05:05;;;;;;;;;;;;;;;21.32;40.14;95390.06;10395631;28;1991;-43
2022/05/03 12:10:24;;;;;;;;;;;;;;;21.34;40.04;95390.56;10396233;28;1910;-46
2022/05/03 12:15:25;;;;;;;;;;;;;;;21.30;40.30;95381.66;10392563;28;1899;-45
2022/05/03 12:20:25;;;;;;;;;;;;;;;21.31;40.06;95390.38;10360016;28;1854;-46
2022/05/03 12:25:26;;;;;;;;;;;;;;;21.32;40.03;95379.53;10371881;28;1906;-44
2022/05/03 12:30:27;;;;;;;;;;;;;;;21.29;39.99;95376.69;10391524;28;1762;-44
2022/05/03 12:35:28;;;;;;;;;;;;;;;21.30;39.97;95388.78;10372830;28;1898;-45
2022/05/03 12:40:28;;;;;;;;;;;;;;;21.32;40.27;95381.38;10377693;28;1917;-43
2022/05/03 12:45:29;;;;;;;;;;;;;;;21.31;39.98;95380.56;10369690;28;1993;-46
2022/05/03 12:50:29;;;;;;;;;;;;;;;21.32;40.20;95373.47;10366012;28;1838;-43
2022/05/03 12:55:30;;;;;;;;;;;;;;;21.34;40.05;95368.69;10381206;28;1828;-46
2022/05/03 13:00:32;;;;;;;;;;;;;;;21.38;40.00;95361.75;10393994;28;1858;-43
2022/05/03 13:05:33;;;;;;;;;;;;;;;21.39;40.05;95355.44;10398200;28;1983;-47
2022/05/03 13:10:33;;;;;;;;;;;;;;;21.40;39.82;95349.88;10397054;28;1815;-44
2022/05/03 13:15:33;;;;;;;;;;;;;;;21.42;40.00;95349.56;10381976;28;2326;-48
2022/05/03 13:20:34;;;;;;;;;;;;;;;21.44;40.90;95335.03;10391207;28;2010;-46
2022/05/03 13:25:34;;;;;;;;;;;;;;;21.48;42.03;95327.31;10344348;28;1973;-43
2022/05/03 13:30:35;;;;;;;;;;;;;;;21.52;42.22;95323.81;10376692;28;1842;-48
2022/05/03 13:40:55;;;;;;;;;;;;;;;21.56;42.45;95313.47;10384289;28;1854;-43
2022/05/03 13:45:55;;;;;;;;;;;;;;;21.55;42.72;95317.19;10369096;28;1980;-49
2022/05/03 13:50:56;;;;;;;;;;;;;;;21.56;42.72;95316.09;10396049;28;1802;-43
2022/05/03 13:55:56;;;;;;;;;;;;;;;21.56;42.92;95316.09;10392838;28;1811;-45
2022/05/03 14:00:56;;;;;;;;;;;;;;;21.54;42.85;95320.88;10395663;28;1811;-47
2022/05/03 14:05:57;;;;;;;;;;;;;;;21.53;42.74;95321.97;10379451;28;1984;-45
2022/05/03 14:10:58;;;;;;;;;;;;;;;21.52;42.81;95317.75;10386430;28;1873;-45
2022/05/03 14:15:58;;;;;;;;;;;;;;;21.53;43.06;95306.94;10381195;28;2412;-47
2022/05/03 14:20:58;;;;;;;;;;;;;;;21.52;42.95;95307.22;10390154;28;1764;-46
2022/05/03 14:25:59;;;;;;;;;;;;;;;21.52;42.81;95299.28;10376769;28;1918;-48
2022/05/03 14:30:59;;;;;;;;;;;;;;;21.51;42.74;95310.94;10368284;28;1811;-45
2022/05/03 14:35:59;;;;;;;;;;;;;;;21.51;42.87;95306.44;10367319;28;1873;-43
2022/05/03 14:41:00;;;;;;;;;;;;;;;21.50;42.84;95304.06;10387189;28;1782;-44
2022/05/03 14:46:01;;;;;;;;;;;;;;;21.48;43.00;95300.94;10361557;28;1918;-46
2022/05/03 14:51:01;;;;;;;;;;;;;;;21.48;43.04;95296.47;10366281;28;1823;-45
2022/05/03 15:06:41;;;;;;;;;;;;;;;21.45;43.11;95301.53;10389611;28;1934;-43
2022/05/03 15:11:42;;;;;;;;;;;;;;;21.45;43.06;95297.03;10391509;28;1833;-46
2022/05/03 15:16:42;;;;;;;;;;;;;;;21.45;42.78;95293.63;10405939;28;1949;-47
2022/05/03 15:21:43;;;;;;;;;;;;;;;21.44;42.61;95286.78;10408907;28;1835;-44
2022/05/03 15:26:43;;;;;;;;;;;;;;;21.42;42.66;95281.81;10410179;28;1977;-47
2022/05/03 15:31:47;;;;;;;;;;;;;;;21.42;43.03;95275.75;10414313;28;1743;-48
2022/05/03 15:36:48;;;;;;;;;;;;;;;21.42;42.84;95273.09;10419145;28;1771;-49
2022/05/03 15:41:48;;;;;;;;;;;;;;;21.43;42.62;95272.81;10392708;28;2284;-44
2022/05/03 15:46:50;;;;;;;;;;;;;;;21.45;42.61;95275.94;10413335;28;1965;-46
2022/05/03 15:51:50;;;;;;;;;;;;;;;21.45;42.79;95275.19;10404372;28;1842;-49
2022/05/03 15:56:50;;;;;;;;;;;;;;;21.47;42.78;95279.09;10404965;28;1996;-42
2022/05/03 16:01:51;;;;;;;;;;;;;;;21.48;42.35;95285.13;10415441;28;1815;-45
2022/05/03 16:06:51;;;;;;;;;;;;;;;21.49;42.62;95278.78;10397141;28;1910;-44
2022/05/03 16:11:52;;;;;;;;;;;;;;;21.53;42.61;95277.13;10390741;28;1763;-44
2022/05/03 16:16:53;;;;;;;;;;;;;;;21.52;42.61;95281.63;10409931;28;1557;-44
2022/05/03 16:21:55;;;;;;;;;;;;;;;21.54;42.43;95281.31;10405763;28;1850;-47
2022/05/03 16:26:55;;;;;;;;;;;;;;;21.55;42.57;95282.91;10388625;28;2012;-43
2022/05/03 16:31:56;;;;;;;;;;;;;;;21.55;42.65;95285.53;10402191;28;1776;-43
2022/05/03 16:42:17;;;;;;;;;;;;;;;21.56;42.76;95289.72;10393283;28;1788;-43
2022/05/03 16:47:19;;;;;;;;;;;;;;;21.56;42.98;95297.63;10378198;28;1906;-46
2022/05/03 16:52:19;;;;;;;;;;;;;;;21.54;43.06;95295.31;10390795;28;1838;-47
2022/05/03 16:57:21;;;;;;;;;;;;;;;21.54;43.21;95299.78;10409567;28;1858;-45
2022/05/03 17:02:21;;;;;;;;;;;;;;;21.58;43.04;95308.69;10406269;28;1728;-45
2022/05/03 17:07:22;;;;;;;;;;;;;;;21.57;43.62;95320.31;10400593;28;1977;-48
2022/05/03 17:12:23;;;;;;;;;;;;;;;21.61;43.87;95326.59;10384340;28;1878;-49
2022/05/03 17:17:23;;;;;;;;;;;;;;;21.63;43.88;95337.63;10397128;28;1866;-48
2022/05/03 17:22:23;;;;;;;;;;;;;;;21.67;43.86;95357.06;10390788;28;1751;-46
2022/05/03 17:27:26;;;;;;;;;;;;;;;21.64;43.43;95355.00;10393116;28;1910;-45
2022/05/03 17:32:27;;;;;;;;;;;;;;;21.64;43.24;95363.69;10400419;28;1752;-46
2022/05/03 17:37:28;;;;;;;;;;;;;;;21.64;42.97;95378.75;10400895;28;1839;-48
2022/05/03 17:42:30;;;;;;;;;;;;;;;21.61;43.22;95381.97;10390473;28;1819;-48
2022/05/03 17:47:30;;;;;;;;;;;;;;;21.63;43.12;95395.66;10403912;28;2542;-43
2022/05/03 17:57:51;;;;;;;;;;;;;;;21.64;42.86;95389.28;10415603;28;1889;-48
2022/05/03 18:02:51;;;;;;;;;;;;;;;21.63;42.79;95414.91;10402931;28;1848;-44
2022/05/03 18:07:52;;;;;;;;;;;;;;;21.66;42.85;95442.53;10411181;28;2010;-46
2022/05/03 18:12:53;;;;;;;;;;;;;;;21.68;42.97;95454.38;10412782;28;1791;-44
2022/05/03 18:17:53;;;;;;;;;;;;;;;21.70;43.11;95456.75;10412658;28;1931;-45
2022/05/03 18:22:53;;;;;;;;;;;;;;;21.72;43.24;95449.34;10385280;28;1755;-44
2022/05/03 18:27:54;;;;;;;;;;;;;;;21.74;43.09;95460.38;10386350;28;1958;-44
2022/05/03 18:32:54;;;;;;;;;;;;;;;21.74;42.98;95458.50;10384840;28;1920;-46
2022/05/03 18:37:56;;;;;;;;;;;;;;;21.75;43.00;95468.00;10391720;28;1834;-44
2022/05/03 18:42:57;;;;;;;;;;;;;;;21.74;42.90;95469.06;10391379;28;1908;-42
2022/05/03 18:47:57;;;;;;;;;;;;;;;21.74;42.96;95476.97;10387590;28;1979;-45
2022/05/03 18:52:57;;;;;;;;;;;;;;;21.70;43.13;95478.63;10390425;28;1728;-44
2022/05/03 18:57:58;;;;;;;;;;;;;;;21.77;45.04;95484.31;10415012;28;1813;-44
2022/05/03 19:02:58;;;;;;;;;;;;;;;21.90;45.06;95493.41;10391247;28;1941;-44
2022/05/03 19:07:59;;;;;;;;;;;;;;;21.96;44.96;95486.97;10385857;28;1971;-43
2022/05/03 19:13:00;;;;;;;;;;;;;;;21.94;45.00;95498.88;10394327;28;1804;-48
2022/05/03 19:18:01;;;;;;;;;;;;;;;21.91;44.81;95494.94;10413683;28;1855;-42
2022/05/03 19:23:02;;;;;;;;;;;;;;;21.88;44.63;95500.81;10412048;28;1633;-48
2022/05/03 19:33:22;;;;;;;;;;;;;;;21.77;44.79;95504.63;10411870;28;1854;-44
2022/05/03 19:38:24;;;;;;;;;;;;;;;21.78;44.55;95507.00;10409616;28;1819;-42
2022/05/03 19:43:25;;;;;;;;;;;;;;;21.74;44.41;95511.28;10404011;28;1810;-44
2022/05/03 19:48:25;;;;;;;;;;;;;;;21.71;44.41;95511.06;10388244;28;1977;-48
2022/05/03 19:53:26;;;;;;;;;;;;;;;21.67;44.33;95510.88;10412330;28;1905;-43
2022/05/03 19:58:26;;;;;;;;;;;;;;;21.68;44.58;95511.63;10395827;28;2667;-47
2022/05/03 20:03:26;;;;;;;;;;;;;;;21.65;44.42;95514.84;10393996;28;1845;-43
2022/05/03 20:08:31;;;;;;;;;;;;;;;21.63;44.67;95527.53;10387772;28;1910;-43
2022/05/03 20:13:32;;;;;;;;;;;;;;;21.59;44.55;95527.34;10390430;28;1847;-43
2022/05/03 20:18:32;;;;;;;;;;;;;;;21.57;44.42;95532.09;10411941;28;1771;-44
2022/05/03 20:23:33;;;;;;;;;;;;;;;21.57;44.34;95526.03;10395737;28;1626;-43
2022/05/03 20:28:33;;;;;;;;;;;;;;;21.53;44.38;95535.59;10409799;28;1914;-42
2022/05/03 20:33:37;;;;;;;;;;;;;;;21.50;44.60;95542.22;10391487;28;1842;-43
2022/05/03 20:38:37;;;;;;;;;;;;;;;21.50;44.69;95547.50;10392768;28;1650;-46
2022/05/03 20:43:38;;;;;;;;;;;;;;;21.50;44.63;95547.50;10391253;28;1853;-44
2022/05/03 20:48:56;;;;;;;;;;;;;;;21.51;44.52;95548.28;10394064;28;1977;-45
2022/05/03 20:53:57;;;;;;;;;;;;;;;21.54;44.67;95550.34;10405927;28;1814;-44
2022/05/03 20:58:58;;;;;;;;;;;;;;;21.54;44.09;95545.84;10390294;28;1806;-46
2022/05/03 21:03:58;;;;;;;;;;;;;;;21.56;44.50;95551.63;10410126;28;1885;-46
2022/05/03 21:08:59;;;;;;;;;;;;;;;21.59;44.80;95552.91;10409563;28;1983;-46
2022/05/03 21:13:59;;;;;;;;;;;;;;;21.59;44.20;95550.28;10393047;28;1747;-46
2022/05/03 21:18:59;;;;;;;;;;;;;;;21.61;44.11;95554.22;10393880;28;1810;-44
2022/05/03 21:24:00;;;;;;;;;;;;;;;21.66;44.71;95554.13;10404138;28;1807;-44
2022/05/03 21:29:01;;;;;;;;;;;;;;;21.65;45.08;95559.69;10382122;28;1985;-43
2022/05/03 21:34:03;;;;;;;;;;;;;;;21.66;44.96;95551.47;10400192;28;1720;-43
2022/05/03 21:39:03;;;;;;;;;;;;;;;21.65;44.80;95557.06;10385644;28;1988;-46
2022/05/03 21:44:03;;;;;;;;;;;;;;;21.65;44.54;95555.22;10378851;28;1799;-44
2022/05/03 21:49:04;;;;;;;;;;;;;;;21.61;44.53;95548.16;10376282;28;1902;-44
2022/05/03 21:54:05;;;;;;;;;;;;;;;21.61;44.25;95538.38;10381489;28;1798;-43
2022/05/03 21:59:05;;;;;;;;;;;;;;;21.61;44.12;95534.94;10381733;28;1865;-45
2022/05/03 22:04:06;;;;;;;;;;;;;;;21.59;44.20;95539.72;10382658;28;1958;-47
2022/05/03 22:09:06;;;;;;;;;;;;;;;21.57;44.14;95542.66;10375807;28;1977;-46
2022/05/03 22:14:06;;;;;;;;;;;;;;;21.58;44.01;95541.56;10380651;28;1771;-43
2022/05/03 22:19:07;;;;;;;;;;;;;;;21.57;43.80;95540.03;10386786;28;1857;-43
2022/05/03 22:24:07;;;;;;;;;;;;;;;21.60;44.37;95555.25;10374774;28;1921;-44
2022/05/03 22:29:08;;;;;;;;;;;;;;;21.60;43.96;95547.34;10377030;28;1902;-47
2022/05/03 22:34:08;;;;;;;;;;;;;;;21.62;43.80;95554.97;10384646;28;1755;-43
2022/05/03 22:39:09;;;;;;;;;;;;;;;21.64;43.74;95556.25;10388867;28;1728;-48
2022/05/03 22:44:09;;;;;;;;;;;;;;;21.65;44.22;95547.28;10382473;28;2133;-47
2022/05/03 22:49:09;;;;;;;;;;;;;;;21.67;44.45;95552.28;10403270;28;1967;-47
2022/05/03 22:54:11;;;;;;;;;;;;;;;21.69;44.32;95560.69;10393779;28;1714;-44
2022/05/03 22:59:11;;;;;;;;;;;;;;;21.67;44.24;95566.25;10409845;28;1823;-43
2022/05/03 23:04:11;;;;;;;;;;;;;;;21.66;44.21;95569.94;10411084;28;1939;-45
2022/05/03 23:09:12;;;;;;;;;;;;;;;21.63;44.09;95573.16;10415874;28;1910;-46
2022/05/03 23:14:13;;;;;;;;;;;;;;;21.64;43.73;95580.00;10414146;28;1937;-43
2022/05/03 23:19:15;;;;;;;;;;;;;;;21.63;43.88;95573.16;10401309;28;1828;-42
2022/05/03 23:24:15;;;;;;;;;;;;;;;21.62;43.69;95582.13;10408558;28;1807;-46
2022/05/03 23:29:16;;;;;;;;;;;;;;;21.63;43.58;95575.03;10387513;28;1910;-46
2022/05/03 23:39:35;;;;;;;;;;;;;;;21.60;43.62;95594.03;10381609;28;1873;-44
2022/05/03 23:44:35;;;;;;;;;;;;;;;21.60;43.53;95597.47;10373677;28;1856;-43
2022/05/03 23:49:36;;;;;;;;;;;;;;;21.61;43.24;95595.63;10386815;28;1902;-43
2022/05/03 23:54:37;;;;;;;;;;;;;;;21.63;43.42;95585.56;10407563;28;1770;-46
2022/05/03 23:59:37;;;;;;;;;;;;;;;21.64;43.39;95582.63;10394872;28;1883;-45
